Time;durP1;ratioP1;P1;durP2;ratioP2;P2;SDS_P1;SDS_P2;PMS_P1;PMS_P2;Temp;Humidity;BMP_temperature;BMP_pressure;BME280_temperature;BME280_humidity;BME280_pressure;Samples;Min_cycle;Max_cycle;Signal;HPM_P1;HPM_P2
2023/09/01 00:00:59;;;;;;;0.67;0.67;;;15.50;99.90;;;;;;5115668;28;20447;-81
2023/09/01 00:03:25;;;;;;;0.80;0.70;;;15.50;99.90;;;;;;5115672;27;20475;-81
2023/09/01 00:05:52;;;;;;;0.67;0.57;;;15.50;99.90;;;;;;5115585;28;20476;-80
2023/09/01 00:08:19;;;;;;;1.17;0.60;;;15.50;99.90;;;;;;5115677;28;20438;-81
2023/09/01 00:10:46;;;;;;;3.67;0.90;;;15.50;99.90;;;;;;5115521;28;20435;-81
2023/09/01 00:13:14;;;;;;;0.60;0.60;;;15.50;99.90;;;;;;5115152;28;20503;-81
2023/09/01 00:15:41;;;;;;;0.90;0.80;;;15.40;99.90;;;;;;5115259;28;20483;-80
2023/09/01 00:18:07;;;;;;;1.70;0.90;;;15.40;99.90;;;;;;5115403;28;20432;-80
2023/09/01 00:20:34;;;;;;;1.03;0.93;;;15.40;99.90;;;;;;5114983;28;20450;-81
2023/09/01 00:23:02;;;;;;;2.37;0.90;;;15.40;99.90;;;;;;5115267;28;20447;-81
2023/09/01 00:25:28;;;;;;;0.57;0.57;;;15.40;99.90;;;;;;5115137;28;20509;-81
2023/09/01 00:27:55;;;;;;;1.80;0.97;;;15.40;99.90;;;;;;5115171;28;20454;-81
2023/09/01 00:30:23;;;;;;;1.10;1.00;;;15.30;99.90;;;;;;5114793;28;20447;-81
2023/09/01 00:32:50;;;;;;;0.50;0.47;;;15.30;99.90;;;;;;5115114;28;20443;-80
2023/09/01 00:35:17;;;;;;;1.43;0.67;;;15.30;99.90;;;;;;5114852;28;20483;-81
2023/09/01 00:37:43;;;;;;;0.70;0.70;;;15.30;99.90;;;;;;5114944;28;20450;-81
2023/09/01 00:40:11;;;;;;;0.60;0.50;;;15.40;99.90;;;;;;5114377;28;20787;-80
2023/09/01 00:42:37;;;;;;;4.10;1.07;;;15.40;99.90;;;;;;5114837;28;20450;-81
2023/09/01 00:45:05;;;;;;;0.83;0.67;;;15.30;99.90;;;;;;5114728;28;20787;-81
2023/09/01 00:47:33;;;;;;;1.27;0.80;;;15.30;99.90;;;;;;5114765;28;20446;-81
2023/09/01 00:50:07;;;;;;;0.60;0.57;;;15.30;99.90;;;;;;5114731;28;20450;-81
2023/09/01 00:52:34;;;;;;;0.80;0.53;;;15.30;99.90;;;;;;5114688;28;20431;-80
2023/09/01 00:55:01;;;;;;;1.53;1.00;;;15.30;99.90;;;;;;5114687;28;20482;-81
2023/09/01 00:57:28;;;;;;;0.80;0.70;;;15.30;99.90;;;;;;5114569;28;20443;-80
2023/09/01 00:59:55;;;;;;;0.87;0.83;;;15.30;99.90;;;;;;5114235;28;20439;-81
2023/09/01 01:02:21;;;;;;;1.00;0.73;;;15.20;99.90;;;;;;5117228;28;20819;-81
2023/09/01 01:04:49;;;;;;;1.00;0.83;;;15.20;99.90;;;;;;5113398;28;20459;-81
2023/09/01 01:07:23;;;;;;;1.03;0.80;;;15.30;99.90;;;;;;5113603;28;20436;-80
2023/09/01 01:10:00;;;;;;;0.70;0.70;;;15.30;99.90;;;;;;5113660;28;20840;-80
2023/09/01 01:12:35;;;;;;;2.67;0.50;;;15.40;99.90;;;;;;5113609;28;20427;-81
2023/09/01 01:15:08;;;;;;;11.20;0.70;;;15.40;99.90;;;;;;5113835;28;20477;-80
2023/09/01 01:17:39;;;;;;;0.60;0.60;;;15.40;99.90;;;;;;5113735;28;20428;-81
2023/09/01 01:20:21;;;;;;;5.37;0.70;;;15.40;99.90;;;;;;5114051;28;20431;-81
2023/09/01 01:22:51;;;;;;;1.00;0.60;;;15.40;99.90;;;;;;5113892;28;20498;-81
2023/09/01 01:25:20;;;;;;;0.50;0.50;;;15.40;99.90;;;;;;5113613;28;20455;-80
2023/09/01 01:27:47;;;;;;;0.80;0.73;;;15.40;99.90;;;;;;5113402;28;20447;-80
2023/09/01 01:30:15;;;;;;;0.83;0.80;;;15.40;99.90;;;;;;5112998;28;20439;-80
2023/09/01 01:32:43;;;;;;;0.70;0.70;;;15.40;99.90;;;;;;5112986;28;20517;-80
2023/09/01 01:35:18;;;;;;;2.57;1.23;;;15.40;99.90;;;;;;5113063;28;20489;-81
2023/09/01 01:37:53;;;;;;;0.93;0.90;;;15.40;99.90;;;;;;5113183;28;20434;-81
2023/09/01 01:40:25;;;;;;;1.87;0.83;;;15.40;99.90;;;;;;5113234;28;20426;-80
2023/09/01 01:42:54;;;;;;;1.87;0.70;;;15.40;99.90;;;;;;5113191;28;20427;-81
2023/09/01 01:45:24;;;;;;;1.47;0.80;;;15.50;99.90;;;;;;5113037;28;20459;-80
2023/09/01 01:47:52;;;;;;;1.37;0.70;;;15.50;99.90;;;;;;5112806;28;20438;-81
2023/09/01 01:50:19;;;;;;;0.50;0.50;;;15.40;99.90;;;;;;5113015;28;20793;-81
2023/09/01 01:52:46;;;;;;;5.03;0.70;;;15.40;99.90;;;;;;5111440;28;20454;-80
2023/09/01 01:55:13;;;;;;;4.30;0.60;;;15.40;99.90;;;;;;5112811;28;20486;-81
2023/09/01 01:57:41;;;;;;;1.13;1.07;;;15.50;99.90;;;;;;5112893;28;20453;-81
2023/09/01 02:00:14;;;;;;;0.80;0.50;;;15.50;99.90;;;;;;5112660;28;20428;-81
2023/09/01 02:02:41;;;;;;;2.30;0.50;;;15.40;99.90;;;;;;5112589;28;20919;-81
2023/09/01 02:05:10;;;;;;;0.50;0.50;;;15.40;99.90;;;;;;5076145;28;1052169;-80
2023/09/01 02:07:37;;;;;;;0.93;0.60;;;15.40;99.90;;;;;;5113304;28;20201;-80
2023/09/01 02:10:05;;;;;;;0.70;0.60;;;15.40;99.90;;;;;;5113336;28;20971;-81
2023/09/01 02:12:32;;;;;;;0.53;0.53;;;15.30;99.90;;;;;;5113593;28;20450;-81
2023/09/01 02:15:00;;;;;;;1.03;0.73;;;15.30;99.90;;;;;;5113415;28;20490;-80
2023/09/01 02:17:27;;;;;;;0.70;0.70;;;15.50;99.90;;;;;;5113809;28;20450;-81
2023/09/01 02:19:54;;;;;;;0.70;0.60;;;15.40;99.90;;;;;;5113534;28;20454;-81
2023/09/01 02:22:21;;;;;;;0.60;0.50;;;15.40;99.90;;;;;;5113964;28;20442;-81
2023/09/01 02:24:48;;;;;;;0.80;0.63;;;15.40;99.90;;;;;;5113423;28;20793;-80
2023/09/01 02:27:14;;;;;;;0.70;0.70;;;15.40;99.90;;;;;;5113444;28;20467;-81
2023/09/01 02:29:42;;;;;;;0.90;0.70;;;15.40;99.90;;;;;;5113144;28;20439;-80
2023/09/01 02:32:10;;;;;;;1.23;0.50;;;15.40;99.90;;;;;;5113588;28;20451;-80
2023/09/01 02:34:36;;;;;;;0.70;0.70;;;15.40;99.90;;;;;;5113409;28;20458;-80
2023/09/01 02:37:04;;;;;;;1.00;0.60;;;15.40;99.90;;;;;;5113430;28;20493;-80
2023/09/01 02:39:30;;;;;;;2.70;1.10;;;15.40;99.90;;;;;;5113348;28;20438;-80
2023/09/01 02:41:59;;;;;;;0.60;0.60;;;15.40;99.90;;;;;;5113358;28;20439;-80
2023/09/01 02:44:26;;;;;;;0.50;0.50;;;15.50;99.90;;;;;;5113530;28;20468;-80
2023/09/01 02:46:53;;;;;;;6.63;0.80;;;15.50;99.90;;;;;;5113264;28;20455;-80
2023/09/01 02:49:21;;;;;;;1.00;0.60;;;15.50;99.90;;;;;;5113008;28;20434;-80
2023/09/01 02:51:48;;;;;;;0.70;0.50;;;15.50;99.90;;;;;;5113243;28;20449;-81
2023/09/01 02:54:15;;;;;;;0.40;0.40;;;15.50;99.90;;;;;;5113022;28;20447;-80
2023/09/01 02:56:42;;;;;;;0.80;0.80;;;15.50;99.90;;;;;;5113027;28;20486;-80
2023/09/01 02:59:08;;;;;;;2.30;0.70;;;15.40;99.90;;;;;;5112839;28;20970;-80
2023/09/01 03:01:36;;;;;;;1.30;0.90;;;15.50;99.90;;;;;;5113164;28;20443;-80
2023/09/01 03:04:06;;;;;;;6.27;0.93;;;15.40;99.90;;;;;;5114041;28;20990;-81
2023/09/01 03:06:35;;;;;;;1.90;0.60;;;15.50;99.90;;;;;;5116450;27;20943;-80
2023/09/01 03:09:02;;;;;;;0.87;0.60;;;15.50;99.90;;;;;;5116525;28;20423;-81
2023/09/01 03:11:29;;;;;;;0.50;0.50;;;15.50;99.90;;;;;;5116422;28;20454;-81
2023/09/01 03:13:56;;;;;;;1.30;0.70;;;15.60;99.90;;;;;;5116626;28;20439;-81
2023/09/01 03:16:23;;;;;;;0.57;0.57;;;15.60;99.90;;;;;;5116461;28;20482;-80
2023/09/01 03:18:52;;;;;;;0.90;0.53;;;15.70;99.90;;;;;;5116564;28;20483;-81
2023/09/01 03:21:19;;;;;;;3.77;0.80;;;15.70;99.90;;;;;;5116482;28;20859;-81
2023/09/01 03:23:48;;;;;;;0.67;0.67;;;15.70;99.90;;;;;;5116427;28;20538;-80
2023/09/01 03:26:14;;;;;;;0.80;0.60;;;15.70;99.90;;;;;;5116060;28;20976;-80
2023/09/01 03:28:41;;;;;;;0.50;0.50;;;15.70;99.90;;;;;;5116074;28;20443;-80
2023/09/01 03:31:12;;;;;;;0.80;0.57;;;15.70;99.90;;;;;;5116248;28;20439;-81
2023/09/01 03:33:39;;;;;;;0.57;0.57;;;15.60;99.90;;;;;;5116530;28;20435;-80
2023/09/01 03:36:07;;;;;;;0.87;0.53;;;15.70;99.90;;;;;;5116033;28;20987;-80
2023/09/01 03:38:34;;;;;;;0.53;0.53;;;15.70;99.90;;;;;;5116120;28;20496;-81
2023/09/01 03:41:04;;;;;;;0.57;0.57;;;15.70;99.90;;;;;;5116143;28;20442;-80
2023/09/01 03:43:30;;;;;;;0.40;0.37;;;15.70;99.90;;;;;;5116587;28;20836;-80
2023/09/01 03:45:57;;;;;;;0.50;0.50;;;15.70;99.90;;;;;;5115625;28;20463;-81
2023/09/01 03:48:24;;;;;;;6.67;0.60;;;15.70;99.90;;;;;;5116787;28;20228;-80
2023/09/01 03:51:06;;;;;;;0.83;0.70;;;15.80;99.90;;;;;;5115622;28;20443;-80
2023/09/01 03:53:33;;;;;;;0.60;0.60;;;15.80;99.90;;;;;;5115925;28;20423;-81
2023/09/01 03:56:01;;;;;;;2.37;0.80;;;15.80;99.90;;;;;;5115688;28;20487;-81
2023/09/01 03:58:29;;;;;;;10.93;1.00;;;15.80;99.90;;;;;;5115797;28;20488;-81
2023/09/01 04:00:56;;;;;;;0.97;0.70;;;15.90;99.90;;;;;;5115714;28;20449;-81
2023/09/01 04:03:23;;;;;;;3.03;0.90;;;15.90;99.90;;;;;;5115453;28;20485;-81
2023/09/01 04:05:50;;;;;;;0.67;0.67;;;15.90;99.90;;;;;;5115308;28;20456;-81
2023/09/01 04:08:17;;;;;;;4.80;0.60;;;15.90;99.90;;;;;;5115254;28;20943;-81
2023/09/01 04:10:45;;;;;;;1.00;0.63;;;15.90;99.90;;;;;;5115560;28;20446;-81
2023/09/01 04:13:12;;;;;;;0.67;0.50;;;15.80;99.90;;;;;;5115999;28;20446;-81
2023/09/01 04:15:40;;;;;;;0.60;0.50;;;15.80;99.90;;;;;;5114291;28;20483;-81
2023/09/01 04:18:07;;;;;;;0.60;0.50;;;15.80;99.90;;;;;;5115432;28;20812;-80
2023/09/01 04:20:33;;;;;;;0.90;0.80;;;15.80;99.90;;;;;;5115355;28;20432;-80
2023/09/01 04:23:00;;;;;;;1.47;0.60;;;15.80;99.90;;;;;;5115319;28;20458;-81
2023/09/01 04:25:27;;;;;;;2.00;0.50;;;15.70;99.90;;;;;;5115159;28;20475;-81
2023/09/01 04:27:54;;;;;;;0.70;0.60;;;15.80;99.90;;;;;;5115212;28;20443;-81
2023/09/01 04:30:20;;;;;;;1.00;0.60;;;15.80;99.90;;;;;;5115098;28;20447;-81
2023/09/01 04:32:49;;;;;;;1.23;0.77;;;15.80;99.90;;;;;;5115323;28;20447;-81
2023/09/01 04:35:15;;;;;;;2.80;0.77;;;15.80;99.90;;;;;;5114936;28;20493;-81
2023/09/01 04:37:42;;;;;;;2.20;0.67;;;15.80;99.90;;;;;;5114950;28;20435;-81
2023/09/01 04:40:10;;;;;;;0.50;0.40;;;15.90;99.90;;;;;;5114658;28;20443;-81
2023/09/01 04:42:37;;;;;;;0.67;0.67;;;15.80;99.90;;;;;;5114888;28;20466;-81
2023/09/01 04:45:04;;;;;;;3.43;0.80;;;15.80;99.90;;;;;;5114824;28;20454;-81
2023/09/01 04:47:32;;;;;;;0.70;0.70;;;15.80;99.90;;;;;;5114794;28;20477;-81
2023/09/01 04:50:00;;;;;;;0.50;0.50;;;15.80;99.90;;;;;;5114782;28;20451;-80
2023/09/01 04:52:27;;;;;;;5.70;0.87;;;15.70;99.90;;;;;;5114979;28;20811;-81
2023/09/01 04:54:54;;;;;;;4.20;0.57;;;15.80;99.90;;;;;;5114615;28;20449;-80
2023/09/01 04:57:20;;;;;;;0.40;0.40;;;15.80;99.90;;;;;;5114837;28;20483;-81
2023/09/01 04:59:48;;;;;;;2.50;0.57;;;15.80;99.90;;;;;;5114310;28;20943;-81
2023/09/01 05:02:15;;;;;;;0.60;0.60;;;15.80;99.90;;;;;;5114546;27;20457;-81
2023/09/01 05:04:41;;;;;;;0.90;0.50;;;15.80;99.90;;;;;;5114127;28;20478;-80
2023/09/01 05:07:09;;;;;;;0.50;0.50;;;15.80;99.90;;;;;;5114352;28;20463;-81
2023/09/01 05:09:36;;;;;;;0.70;0.57;;;15.80;99.90;;;;;;5114411;28;20443;-81
2023/09/01 05:12:03;;;;;;;0.67;0.50;;;15.80;99.90;;;;;;5114102;28;20784;-81
2023/09/01 05:14:30;;;;;;;1.90;0.70;;;15.80;99.90;;;;;;5114307;28;20449;-81
2023/09/01 05:16:57;;;;;;;0.50;0.50;;;15.90;99.90;;;;;;5114128;28;20543;-81
2023/09/01 05:19:23;;;;;;;1.80;0.50;;;15.90;99.90;;;;;;5114196;28;20936;-81
2023/09/01 05:21:50;;;;;;;0.50;0.50;;;15.90;99.90;;;;;;5114178;28;20446;-80
2023/09/01 05:24:18;;;;;;;0.60;0.60;;;15.90;99.90;;;;;;5114169;28;20449;-81
2023/09/01 05:26:45;;;;;;;0.80;0.50;;;15.90;99.90;;;;;;5113554;28;21002;-81
2023/09/01 05:29:12;;;;;;;0.77;0.60;;;15.90;99.90;;;;;;5113861;28;20931;-82
2023/09/01 05:31:38;;;;;;;3.67;0.40;;;15.90;99.90;;;;;;5114025;28;20439;-82
2023/09/01 05:34:06;;;;;;;0.60;0.60;;;15.80;99.90;;;;;;5114068;28;20437;-82
2023/09/01 05:36:36;;;;;;;0.70;0.70;;;16.00;99.90;;;;;;5113783;28;20483;-81
2023/09/01 05:39:03;;;;;;;0.50;0.40;;;15.70;99.90;;;;;;5113697;28;21011;-81
2023/09/01 05:41:31;;;;;;;0.50;0.50;;;15.50;99.90;;;;;;5113943;28;20439;-82
2023/09/01 05:43:58;;;;;;;0.97;0.70;;;15.50;99.90;;;;;;5113892;28;20533;-81
2023/09/01 05:46:25;;;;;;;0.40;0.40;;;15.40;99.90;;;;;;5113782;28;20482;-81
2023/09/01 05:48:51;;;;;;;1.13;0.60;;;15.30;99.90;;;;;;5113516;28;20439;-81
2023/09/01 05:51:18;;;;;;;2.27;0.40;;;15.20;99.90;;;;;;5113864;28;20447;-81
2023/09/01 05:53:45;;;;;;;0.50;0.50;;;15.20;99.90;;;;;;5113758;28;20446;-82
2023/09/01 05:56:11;;;;;;;0.60;0.60;;;15.10;99.90;;;;;;5113337;28;20483;-82
2023/09/01 05:58:39;;;;;;;2.30;0.50;;;15.10;99.90;;;;;;5113733;28;20442;-82
2023/09/01 06:01:06;;;;;;;0.60;0.50;;;15.10;99.90;;;;;;5113598;28;20959;-82
2023/09/01 06:03:33;;;;;;;0.90;0.53;;;15.00;99.90;;;;;;5113527;28;20483;-83
2023/09/01 06:06:00;;;;;;;0.50;0.40;;;14.90;99.90;;;;;;5113695;28;20463;-83
2023/09/01 06:08:26;;;;;;;0.40;0.37;;;15.00;99.90;;;;;;5113441;28;20427;-83
2023/09/01 06:11:03;;;;;;;0.70;0.60;;;15.00;99.90;;;;;;5113870;28;20439;-83
2023/09/01 06:13:30;;;;;;;2.40;0.40;;;15.00;99.90;;;;;;5113667;28;20513;-82
2023/09/01 06:15:58;;;;;;;1.73;0.47;;;15.00;99.90;;;;;;5113436;28;20458;-83
2023/09/01 06:18:25;;;;;;;0.50;0.40;;;15.00;99.90;;;;;;5113595;28;20440;-83
2023/09/01 06:20:52;;;;;;;0.50;0.50;;;15.10;99.90;;;;;;5113741;28;20455;-82
2023/09/01 06:23:18;;;;;;;0.40;0.40;;;15.00;99.90;;;;;;5113520;28;20450;-82
2023/09/01 06:25:45;;;;;;;0.80;0.50;;;15.10;99.90;;;;;;5113151;28;20987;-82
2023/09/01 06:28:12;;;;;;;0.53;0.40;;;15.10;99.90;;;;;;5113553;28;20443;-83
2023/09/01 06:30:40;;;;;;;0.50;0.50;;;15.10;99.90;;;;;;5113392;28;20442;-83
2023/09/01 06:33:09;;;;;;;0.60;0.40;;;15.20;99.90;;;;;;5113655;28;20514;-83
2023/09/01 06:35:36;;;;;;;0.63;0.40;;;15.20;99.90;;;;;;5113405;28;20463;-83
2023/09/01 06:38:05;;;;;;;0.50;0.40;;;15.20;99.90;;;;;;5113340;28;20482;-82
2023/09/01 06:40:32;;;;;;;0.90;0.60;;;15.20;99.90;;;;;;5117339;28;20439;-83
2023/09/01 06:42:59;;;;;;;0.97;0.50;;;15.20;99.90;;;;;;5117011;27;20806;-82
2023/09/01 06:45:26;;;;;;;0.40;0.40;;;15.20;99.90;;;;;;5117135;28;20466;-83
2023/09/01 06:47:55;;;;;;;0.40;0.40;;;15.30;99.90;;;;;;5117200;28;20442;-83
2023/09/01 06:50:23;;;;;;;0.57;0.40;;;15.30;99.90;;;;;;5117170;28;20439;-82
2023/09/01 06:52:50;;;;;;;0.80;0.40;;;15.40;99.90;;;;;;5117395;28;20442;-82
2023/09/01 06:55:17;;;;;;;0.40;0.40;;;15.40;99.90;;;;;;5116678;28;20987;-83
2023/09/01 06:57:44;;;;;;;1.20;0.47;;;15.50;99.90;;;;;;5116962;28;20483;-83
2023/09/01 07:00:12;;;;;;;0.40;0.40;;;15.50;99.90;;;;;;5117009;28;20801;-83
2023/09/01 07:02:39;;;;;;;0.63;0.50;;;15.50;99.90;;;;;;5117156;28;20446;-83
2023/09/01 07:05:06;;;;;;;0.40;0.40;;;15.50;99.90;;;;;;5116503;28;20865;-83
2023/09/01 07:07:34;;;;;;;0.40;0.33;;;15.60;99.90;;;;;;5117103;28;20431;-83
2023/09/01 07:10:01;;;;;;;0.57;0.40;;;15.60;99.90;;;;;;5116763;28;20439;-83
2023/09/01 07:12:28;;;;;;;1.33;0.60;;;15.70;99.90;;;;;;5116506;28;20450;-83
2023/09/01 07:14:54;;;;;;;0.50;0.40;;;15.70;99.90;;;;;;5116902;28;20438;-83
2023/09/01 07:17:22;;;;;;;0.50;0.40;;;15.70;99.90;;;;;;5116798;28;20570;-83
2023/09/01 07:19:48;;;;;;;0.40;0.40;;;15.70;99.90;;;;;;5116591;28;20495;-83
2023/09/01 07:22:15;;;;;;;0.50;0.50;;;15.90;99.90;;;;;;5116614;28;20457;-83
2023/09/01 07:24:43;;;;;;;0.50;0.50;;;15.80;99.90;;;;;;5116303;28;20443;-83
2023/09/01 07:27:10;;;;;;;0.50;0.40;;;15.80;99.90;;;;;;5116057;28;20842;-83
2023/09/01 07:29:37;;;;;;;0.40;0.40;;;15.90;99.90;;;;;;5116222;28;20443;-83
2023/09/01 07:32:04;;;;;;;0.63;0.60;;;16.00;99.90;;;;;;5116670;28;20449;-84
2023/09/01 07:34:31;;;;;;;1.77;0.40;;;16.30;99.90;;;;;;5116275;28;20442;-84
2023/09/01 07:36:58;;;;;;;0.70;0.70;;;16.40;99.90;;;;;;5116090;28;20855;-84
2023/09/01 07:39:24;;;;;;;0.50;0.50;;;16.50;99.90;;;;;;5116373;28;20458;-83
2023/09/01 07:41:53;;;;;;;0.80;0.80;;;16.90;99.90;;;;;;5116182;28;20447;-84
2023/09/01 07:44:20;;;;;;;0.50;0.50;;;16.70;99.90;;;;;;5116199;28;20451;-85
2023/09/01 07:46:47;;;;;;;0.90;0.53;;;16.70;99.90;;;;;;5116098;28;20463;-84
2023/09/01 07:49:13;;;;;;;0.50;0.50;;;16.80;99.90;;;;;;5116011;28;20468;-84
2023/09/01 07:51:40;;;;;;;0.50;0.40;;;16.80;99.90;;;;;;5115715;28;20435;-83
2023/09/01 07:54:07;;;;;;;1.17;0.50;;;16.70;99.90;;;;;;5116243;28;20490;-84
2023/09/01 07:56:34;;;;;;;0.50;0.40;;;16.80;99.90;;;;;;5115762;28;20467;-84
2023/09/01 07:59:03;;;;;;;0.40;0.37;;;16.80;99.90;;;;;;5115590;28;20487;-83
2023/09/01 08:01:29;;;;;;;0.40;0.33;;;16.90;99.90;;;;;;5115820;28;20560;-84
2023/09/01 08:03:59;;;;;;;0.50;0.50;;;17.00;99.90;;;;;;5115542;28;20815;-84
2023/09/01 08:06:26;;;;;;;0.50;0.50;;;17.10;99.90;;;;;;5115541;28;20469;-84
2023/09/01 08:08:53;;;;;;;0.50;0.50;;;17.10;99.90;;;;;;5115659;27;20430;-84
2023/09/01 08:11:20;;;;;;;1.70;0.30;;;17.20;99.90;;;;;;5115558;28;20451;-84
2023/09/01 08:13:46;;;;;;;0.50;0.40;;;17.10;99.90;;;;;;5115497;28;20435;-83
2023/09/01 08:16:15;;;;;;;0.40;0.30;;;17.10;99.90;;;;;;5115385;28;20796;-83
2023/09/01 08:18:42;;;;;;;0.50;0.50;;;17.30;99.90;;;;;;5115331;28;20506;-83
2023/09/01 08:21:09;;;;;;;0.40;0.33;;;17.50;99.90;;;;;;5115399;27;20439;-83
2023/09/01 08:23:36;;;;;;;0.50;0.43;;;17.50;99.90;;;;;;5115283;28;20447;-83
2023/09/01 08:26:05;;;;;;;0.40;0.40;;;17.60;99.90;;;;;;5114910;28;20979;-83
2023/09/01 08:28:32;;;;;;;0.40;0.40;;;17.90;99.90;;;;;;5115333;28;20443;-83
2023/09/01 08:31:01;;;;;;;1.90;0.50;;;17.80;99.90;;;;;;5114873;28;20809;-83
2023/09/01 08:33:29;;;;;;;1.80;0.50;;;17.80;99.90;;;;;;5114926;28;20419;-83
2023/09/01 08:35:56;;;;;;;0.40;0.30;;;17.70;99.90;;;;;;5114576;28;20459;-86
2023/09/01 08:38:23;;;;;;;0.40;0.40;;;17.70;99.90;;;;;;5114916;28;20479;-83
2023/09/01 08:40:50;;;;;;;0.70;0.40;;;18.00;99.90;;;;;;5114560;28;20454;-83
2023/09/01 08:43:17;;;;;;;0.70;0.60;;;18.20;99.90;;;;;;5114943;28;20443;-83
2023/09/01 08:45:45;;;;;;;0.40;0.40;;;18.10;99.90;;;;;;5114802;28;20486;-83
2023/09/01 08:48:12;;;;;;;0.73;0.50;;;18.30;99.90;;;;;;5114839;28;20435;-83
2023/09/01 08:50:41;;;;;;;0.40;0.40;;;18.50;99.90;;;;;;5114804;28;20443;-83
2023/09/01 08:53:08;;;;;;;0.60;0.40;;;18.40;99.90;;;;;;5114670;28;20447;-82
2023/09/01 08:55:34;;;;;;;0.77;0.60;;;18.30;99.90;;;;;;5114918;28;20466;-82
2023/09/01 08:58:01;;;;;;;2.90;0.70;;;18.50;99.90;;;;;;5114594;28;20478;-83
2023/09/01 09:00:28;;;;;;;0.60;0.50;;;18.70;99.90;;;;;;5114589;28;20802;-83
2023/09/01 09:02:55;;;;;;;0.70;0.50;;;19.10;99.90;;;;;;5113984;28;20793;-82
2023/09/01 09:05:24;;;;;;;1.10;0.77;;;19.30;99.90;;;;;;5114042;28;20482;-83
2023/09/01 09:07:59;;;;;;;0.67;0.60;;;19.60;99.90;;;;;;5114464;28;20489;-83
2023/09/01 09:10:36;;;;;;;1.17;0.53;;;19.80;99.90;;;;;;5114763;28;20419;-83
2023/09/01 09:13:05;;;;;;;0.70;0.50;;;19.70;99.90;;;;;;5114391;28;20441;-82
2023/09/01 09:15:32;;;;;;;0.43;0.40;;;19.70;99.90;;;;;;5114168;28;20515;-83
2023/09/01 09:17:59;;;;;;;0.50;0.50;;;19.60;99.90;;;;;;5113915;28;20486;-82
2023/09/01 09:20:37;;;;;;;1.03;0.40;;;19.50;99.90;;;;;;5114525;28;20435;-82
2023/09/01 09:23:05;;;;;;;1.40;0.77;;;19.50;99.90;;;;;;5114224;28;20419;-83
2023/09/01 09:25:35;;;;;;;0.50;0.50;;;19.40;99.90;;;;;;5113802;28;20458;-82
2023/09/01 09:28:11;;;;;;;0.50;0.50;;;19.20;99.90;;;;;;5114117;28;20442;-82
2023/09/01 09:30:48;;;;;;;0.90;0.60;;;19.20;99.90;;;;;;5113830;28;20899;-82
2023/09/01 09:33:15;;;;;;;0.57;0.57;;;19.10;99.90;;;;;;5114120;28;20426;-82
2023/09/01 09:35:50;;;;;;;0.97;0.50;;;19.00;99.90;;;;;;5113768;28;20991;-82
2023/09/01 09:38:18;;;;;;;1.50;0.40;;;18.90;99.90;;;;;;5113881;28;20572;-82
2023/09/01 09:40:56;;;;;;;0.60;0.50;;;18.80;99.90;;;;;;5113573;28;21001;-82
2023/09/01 09:43:23;;;;;;;2.40;0.67;;;18.70;99.90;;;;;;5113861;28;20429;-82
2023/09/01 09:45:52;;;;;;;0.53;0.43;;;18.60;99.90;;;;;;5113770;28;20459;-81
2023/09/01 09:48:20;;;;;;;5.83;0.53;;;18.50;99.90;;;;;;5113862;28;20435;-82
2023/09/01 09:50:50;;;;;;;0.50;0.50;;;18.50;99.90;;;;;;5113762;28;20462;-82
2023/09/01 09:53:22;;;;;;;0.63;0.40;;;18.50;99.90;;;;;;5113853;28;20419;-82
2023/09/01 09:55:50;;;;;;;3.03;1.00;;;18.50;99.90;;;;;;5113760;28;20462;-82
2023/09/01 09:58:19;;;;;;;0.83;0.80;;;18.40;99.90;;;;;;5113383;28;21071;-82
2023/09/01 10:00:50;;;;;;;1.20;0.80;;;18.60;99.90;;;;;;5113915;28;20443;-82
2023/09/01 10:03:17;;;;;;;0.83;0.70;;;18.60;99.90;;;;;;5114032;28;20427;-82
2023/09/01 10:05:45;;;;;;;1.73;0.80;;;18.70;99.90;;;;;;5113319;28;20979;-82
2023/09/01 10:08:14;;;;;;;0.77;0.63;;;18.90;99.90;;;;;;5113345;28;20450;-82
2023/09/01 10:10:42;;;;;;;0.90;0.60;;;18.90;99.90;;;;;;5113846;28;20439;-82
2023/09/01 10:13:10;;;;;;;0.50;0.50;;;19.00;99.90;;;;;;5114202;28;20434;-82
2023/09/01 10:15:38;;;;;;;0.73;0.50;;;19.10;99.90;;;;;;5117719;28;20455;-82
2023/09/01 10:18:05;;;;;;;0.60;0.60;;;19.10;99.90;;;;;;5117691;28;20482;-82
2023/09/01 10:20:34;;;;;;;0.50;0.50;;;19.20;99.90;;;;;;5118759;28;20453;-82
2023/09/01 10:23:02;;;;;;;1.73;0.50;;;19.10;99.90;;;;;;5117652;28;20449;-82
2023/09/01 10:25:29;;;;;;;0.60;0.60;;;19.20;99.90;;;;;;5117505;28;20550;-82
2023/09/01 10:28:06;;;;;;;1.27;0.70;;;19.20;99.90;;;;;;5117631;28;20434;-82
2023/09/01 10:30:34;;;;;;;0.67;0.60;;;19.20;99.90;;;;;;5117560;28;20438;-82
2023/09/01 10:33:08;;;;;;;0.70;0.70;;;19.20;99.90;;;;;;5114136;28;20810;-81
2023/09/01 10:35:40;;;;;;;0.50;0.40;;;19.30;99.90;;;;;;5116284;28;20466;-82
2023/09/01 10:38:14;;;;;;;0.47;0.47;;;19.40;99.90;;;;;;5114992;28;20539;-81
2023/09/01 10:40:43;;;;;;;1.63;0.70;;;19.50;99.90;;;;;;5115855;27;20422;-82
2023/09/01 10:43:11;;;;;;;0.70;0.60;;;19.90;99.90;;;;;;5116811;28;20578;-82
2023/09/01 10:45:39;;;;;;;1.13;0.63;;;19.60;99.90;;;;;;5106359;28;20516;-81
2023/09/01 10:48:11;;;;;;;0.50;0.50;;;19.70;99.90;;;;;;5109052;28;20483;-82
2023/09/01 10:50:40;;;;;;;0.93;0.50;;;19.80;99.90;;;;;;5108575;28;21011;-81
2023/09/01 10:53:29;;;;;;;0.60;0.50;;;19.80;99.90;;;;;;5100794;28;20440;-81
2023/09/01 10:56:09;;;;;;;2.63;0.57;;;19.80;99.90;;;;;;5107996;28;20474;-81
2023/09/01 10:58:45;;;;;;;0.50;0.50;;;19.90;99.90;;;;;;5098891;28;20478;-81
2023/09/01 11:01:32;;;;;;;0.40;0.40;;;19.90;99.90;;;;;;5104155;28;20445;-81
2023/09/01 11:04:33;;;;;;;1.17;0.50;;;19.90;99.90;;;;;;5114997;28;20831;-81
2023/09/01 11:07:04;;;;;;;0.57;0.50;;;20.00;99.90;;;;;;5116727;28;20458;-81
2023/09/01 11:09:51;;;;;;;0.40;0.40;;;20.10;99.90;;;;;;5116832;28;20439;-81
2023/09/01 11:12:18;;;;;;;0.80;0.57;;;20.20;99.90;;;;;;5116801;28;20510;-81
2023/09/01 11:14:57;;;;;;;0.40;0.40;;;20.30;99.90;;;;;;5116450;27;20438;-81
2023/09/01 11:17:37;;;;;;;0.70;0.40;;;20.30;99.90;;;;;;5116708;28;20457;-81
2023/09/01 11:20:05;;;;;;;1.53;0.47;;;20.50;99.90;;;;;;5116578;27;20442;-81
2023/09/01 11:22:31;;;;;;;0.40;0.40;;;20.50;99.90;;;;;;5116520;28;20624;-81
2023/09/01 11:24:58;;;;;;;0.97;0.63;;;20.70;99.90;;;;;;5116348;28;20430;-81
2023/09/01 11:27:25;;;;;;;0.57;0.57;;;20.90;99.90;;;;;;5116473;28;20815;-81
2023/09/01 11:29:55;;;;;;;0.50;0.50;;;21.00;99.90;;;;;;5116093;28;21004;-81
2023/09/01 11:32:28;;;;;;;1.57;0.43;;;21.20;99.90;;;;;;5116103;28;20449;-81
2023/09/01 11:34:55;;;;;;;0.57;0.50;;;21.30;99.90;;;;;;5116309;28;20790;-81
2023/09/01 11:37:34;;;;;;;0.40;0.30;;;21.50;99.90;;;;;;5116035;28;20461;-81
2023/09/01 11:40:04;;;;;;;0.50;0.50;;;21.50;99.90;;;;;;5115977;28;20924;-82
2023/09/01 11:42:31;;;;;;;0.50;0.50;;;21.40;99.90;;;;;;5116128;28;20503;-81
2023/09/01 11:44:59;;;;;;;0.50;0.50;;;21.40;99.90;;;;;;5116042;27;20507;-81
2023/09/01 11:47:27;;;;;;;0.60;0.47;;;21.60;99.90;;;;;;5115831;28;20453;-80
2023/09/01 11:49:54;;;;;;;0.50;0.40;;;21.60;99.90;;;;;;5116017;28;20442;-81
2023/09/01 11:52:21;;;;;;;0.70;0.50;;;21.70;99.90;;;;;;5115753;28;20958;-81
2023/09/01 11:54:48;;;;;;;0.40;0.40;;;21.80;99.90;;;;;;5115816;28;20950;-81
2023/09/01 11:57:14;;;;;;;0.50;0.50;;;21.90;99.90;;;;;;5115787;28;20439;-81
2023/09/01 11:59:45;;;;;;;0.50;0.50;;;21.90;99.90;;;;;;5115400;28;21037;-81
2023/09/01 12:02:15;;;;;;;0.80;0.60;;;22.00;99.90;;;;;;5115801;28;20435;-81
2023/09/01 12:04:49;;;;;;;1.10;0.70;;;22.00;99.90;;;;;;5115305;28;20473;-81
2023/09/01 12:07:26;;;;;;;2.43;0.50;;;22.00;99.90;;;;;;5115651;28;20449;-80
2023/09/01 12:09:53;;;;;;;0.40;0.40;;;22.00;99.90;;;;;;5115628;28;20495;-80
2023/09/01 12:12:20;;;;;;;0.90;0.47;;;22.00;99.90;;;;;;5115310;28;20446;-81
2023/09/01 12:14:47;;;;;;;0.60;0.50;;;22.10;99.90;;;;;;5115291;28;20450;-81
2023/09/01 12:17:21;;;;;;;0.60;0.40;;;22.10;99.90;;;;;;5115372;28;20960;-80
2023/09/01 12:19:49;;;;;;;0.70;0.40;;;22.20;99.90;;;;;;5115624;28;20876;-80
2023/09/01 12:22:17;;;;;;;0.53;0.37;;;22.10;99.90;;;;;;5115575;28;20245;-81
2023/09/01 12:24:53;;;;;;;0.40;0.40;;;22.10;99.90;;;;;;5115066;28;20968;-80
2023/09/01 12:27:20;;;;;;;0.70;0.50;;;22.00;99.90;;;;;;5114970;28;20957;-80
2023/09/01 12:29:48;;;;;;;1.10;0.50;;;22.00;99.90;;;;;;5115268;27;20192;-80
2023/09/01 12:32:15;;;;;;;0.40;0.30;;;21.90;99.90;;;;;;5115300;28;20204;-80
2023/09/01 12:34:45;;;;;;;0.50;0.40;;;21.90;99.90;;;;;;5115539;28;20529;-80
2023/09/01 12:37:12;;;;;;;0.50;0.47;;;21.90;99.90;;;;;;5114269;28;20449;-80
2023/09/01 12:39:39;;;;;;;0.40;0.37;;;21.90;99.90;;;;;;5115000;28;20946;-80
2023/09/01 12:42:06;;;;;;;1.47;0.60;;;21.90;99.90;;;;;;5115018;28;20427;-80
2023/09/01 12:44:33;;;;;;;0.50;0.43;;;21.90;99.90;;;;;;5115017;28;20253;-81
2023/09/01 12:47:00;;;;;;;0.60;0.60;;;22.00;99.90;;;;;;5114537;28;20502;-80
2023/09/01 12:49:28;;;;;;;0.40;0.40;;;22.00;99.90;;;;;;5115121;28;20431;-80
2023/09/01 12:51:56;;;;;;;0.50;0.50;;;22.00;99.90;;;;;;5115019;28;20450;-80